Time;durP1;ratioP1;P1;durP2;ratioP2;P2;SDS_P1;SDS_P2;PMS_P1;PMS_P2;Temp;Humidity;BMP_temperature;BMP_pressure;BME280_temperature;BME280_humidity;BME280_pressure;Samples;Min_cycle;Max_cycle;Signal;HPM_P1;HPM_P2
2022/01/12 00:04:42;;;;;;;;;;;-1.10;99.90;;;-2.19;100.00;97208.47;10412305;28;1720;-78
2022/01/12 00:09:46;;;;;;;;;;;-1.00;99.90;;;-2.13;100.00;97215.72;10417284;28;1887;-77
2022/01/12 00:14:49;;;;;;;;;;;-1.00;99.90;;;-2.12;100.00;97221.81;10411037;28;1873;-77
2022/01/12 00:19:52;;;;;;;;;;;-1.00;99.90;;;-2.00;100.00;97217.91;10432168;28;1989;-77
2022/01/12 00:25:23;;;;;;;;;;;-0.90;99.90;;;-1.93;100.00;97219.75;10418960;28;1793;-78
2022/01/12 00:35:46;;;;;;;;;;;-0.80;99.90;;;-2.33;100.00;97220.41;10441922;23;1902;-72
2022/01/12 00:40:50;;;;;;;;;;;-1.00;99.90;;;-2.33;100.00;97223.06;10417474;28;2011;-71
2022/01/12 00:45:53;;;;;;;;;;;-1.10;99.90;;;-2.47;100.00;97205.22;10424165;28;1929;-72
2022/01/12 00:50:58;;;;;;;;;;;-1.20;99.90;;;-2.51;100.00;97215.22;10410825;28;1872;-72
2022/01/12 00:56:02;;;;;;;;;;;-1.30;99.90;;;-2.62;100.00;97218.13;10409489;28;1954;-71
2022/01/12 01:01:05;;;;;;;;;;;-1.40;99.90;;;-2.79;100.00;97214.56;10422361;28;1933;-72
2022/01/12 01:06:10;;;;;;;;;;;-1.50;99.90;;;-2.75;100.00;97218.53;10430834;28;1954;-71
2022/01/12 01:11:13;;;;;;;;;;;-1.50;99.90;;;-2.81;100.00;97213.06;10421494;28;1912;-71
2022/01/12 01:16:22;;;;;;;;;;;-1.60;99.90;;;-2.84;100.00;97235.25;10423639;28;1958;-72
2022/01/12 01:26:45;;;;;;;;;;;-1.60;99.90;;;-2.87;100.00;97227.66;10423476;28;1848;-71
2022/01/12 01:31:48;;;;;;;;;;;-1.60;99.90;;;-2.85;100.00;97219.63;10424927;28;1884;-72
2022/01/12 01:36:51;;;;;;;;;;;-1.50;99.90;;;-3.00;100.00;97209.63;10424877;28;2013;-71
2022/01/12 01:41:56;;;;;;;;;;;-1.60;99.90;;;-3.13;100.00;97203.13;10420417;28;2016;-71
2022/01/12 01:57:41;;;;;;;;;;;-1.80;99.90;;;-3.33;100.00;97213.00;10421428;28;1971;-72
2022/01/12 02:02:45;;;;;;;;;;;-2.10;99.90;;;-3.38;100.00;97210.00;10430961;28;1872;-72
2022/01/12 02:07:48;;;;;;;;;;;-2.10;99.90;;;-3.42;100.00;97204.22;10434739;28;1567;-71
2022/01/12 02:12:52;;;;;;;;;;;-2.10;99.90;;;-3.60;100.00;97212.13;10420008;28;1900;-72
2022/01/12 02:18:05;;;;;;;;;;;-2.40;99.90;;;-3.73;100.00;97210.84;10422609;28;1996;-72
2022/01/12 02:55:15;;;;;;;;;;;-2.70;99.90;;;-3.84;100.00;97252.09;10419554;28;2041;-72
2022/01/12 03:00:21;;;;;;;;;;;-2.70;99.90;;;-3.70;100.00;97231.53;10416012;28;1898;-72
2022/01/12 03:05:44;;;;;;;;;;;-2.60;99.90;;;-3.56;100.00;97246.81;10421874;28;1853;-72
2022/01/12 03:10:47;;;;;;;;;;;-2.50;99.90;;;-3.57;100.00;97253.84;10413956;28;1877;-71
2022/01/12 03:15:50;;;;;;;;;;;-2.40;99.90;;;-3.46;100.00;97258.06;10421104;28;1910;-71
2022/01/12 03:20:54;;;;;;;;;;;-2.30;99.90;;;-3.18;100.00;97253.59;10415072;28;1910;-72
2022/01/12 03:25:57;;;;;;;;;;;-2.20;99.90;;;-3.03;100.00;97256.50;10423597;28;1833;-71
2022/01/12 03:31:08;;;;;;;;;;;-2.00;99.90;;;-3.29;100.00;97266.97;10444876;28;1828;-71
2022/01/12 03:36:26;;;;;;;;;;;-2.10;99.90;;;-3.53;100.00;97268.38;10428398;28;2001;-70
2022/01/12 03:41:29;;;;;;;;;;;-2.30;99.90;;;-3.63;100.00;97282.53;10426382;28;1911;-71
2022/01/12 03:46:33;;;;;;;;;;;-2.40;99.90;;;-3.47;100.00;97282.72;10431434;28;1999;-73
2022/01/12 03:51:36;;;;;;;;;;;-2.40;99.90;;;-3.37;100.00;97280.88;10422994;28;1834;-72
2022/01/12 03:56:39;;;;;;;;;;;-2.30;99.90;;;-3.41;100.00;97283.94;10427324;28;2122;-71
2022/01/12 04:01:42;;;;;;;;;;;-2.30;99.90;;;-3.43;100.00;97276.19;10435183;28;1706;-70
2022/01/12 04:12:24;;;;;;;;;;;-2.40;99.90;;;-3.46;100.00;97281.75;10423176;28;1761;-71
2022/01/12 04:17:27;;;;;;;;;;;-2.30;99.90;;;-3.38;100.00;97294.97;10415121;28;1985;-71
2022/01/12 04:27:57;;;;;;;;;;;-2.10;99.90;;;-3.41;100.00;97281.31;10406130;28;1864;-70
2022/01/12 04:33:00;;;;;;;;;;;-2.10;99.90;;;-3.22;100.00;97286.41;10415742;28;1836;-72
2022/01/12 04:38:03;;;;;;;;;;;-2.10;99.90;;;-3.09;100.00;97293.94;10417453;28;1969;-73
2022/01/12 04:43:08;;;;;;;;;;;-2.00;99.90;;;-3.21;100.00;97285.44;10420965;28;1840;-71
2022/01/12 04:48:33;;;;;;;;;;;-2.00;99.90;;;-3.18;100.00;97285.16;10411293;28;2033;-72
2022/01/12 04:53:36;;;;;;;;;;;-2.10;99.90;;;-3.32;100.00;97283.03;10416044;28;1953;-71
2022/01/12 04:58:39;;;;;;;;;;;-2.10;99.90;;;-3.35;100.00;97284.16;10418259;28;1912;-73
2022/01/12 05:09:09;;;;;;;;;;;-2.20;99.90;;;-3.24;100.00;97300.66;10380948;28;1819;-73
2022/01/12 05:14:13;;;;;;;;;;;-2.20;99.90;;;-2.97;100.00;97300.63;10414926;28;1987;-72
2022/01/12 05:19:16;;;;;;;;;;;-2.00;99.90;;;-3.20;100.00;97300.22;10413170;28;2046;-71
2022/01/12 05:24:19;;;;;;;;;;;-2.00;99.90;;;-3.44;100.00;97306.06;10409469;28;1819;-71
2022/01/12 05:29:22;;;;;;;;;;;-2.20;99.90;;;-3.38;100.00;97321.25;10413963;28;1911;-72
2022/01/12 05:34:26;;;;;;;;;;;-2.20;99.90;;;-3.34;100.00;97322.63;10417199;28;1849;-71
2022/01/12 05:39:30;;;;;;;;;;;-2.20;99.90;;;-3.32;100.00;97319.84;10416032;28;1975;-71
2022/01/12 05:44:53;;;;;;;;;;;-2.20;99.90;;;-3.27;100.00;97334.19;10421038;28;2003;-72
2022/01/12 05:49:56;;;;;;;;;;;-2.10;99.90;;;-3.26;100.00;97338.47;10422274;28;1895;-72
2022/01/12 05:55:02;;;;;;;;;;;-2.10;99.90;;;-2.91;100.00;97338.66;10421577;28;1823;-72
2022/01/12 06:00:05;;;;;;;;;;;-1.90;99.90;;;-2.96;100.00;97338.28;10416166;28;1903;-70
2022/01/12 06:05:08;;;;;;;;;;;-1.80;99.90;;;-3.00;100.00;97345.63;10422179;28;1874;-72
2022/01/12 06:10:12;;;;;;;;;;;-1.50;99.90;;;-2.83;100.00;97355.34;10420723;28;1926;-72
2022/01/12 06:15:15;;;;;;;;;;;-1.80;99.90;;;-2.54;100.00;97346.38;10423709;28;1846;-71
2022/01/12 06:20:18;;;;;;;;;;;-1.60;99.90;;;-2.47;100.00;97344.78;10419241;28;1921;-71
2022/01/12 06:25:21;;;;;;;;;;;-1.40;99.90;;;-2.33;100.00;97359.19;10431733;28;1837;-72
2022/01/12 06:35:46;;;;;;;;;;;-1.50;99.90;;;-2.82;100.00;97380.66;10429394;28;1953;-71
2022/01/12 06:40:49;;;;;;;;;;;-0.90;99.90;;;-2.75;100.00;97383.53;10426431;28;1959;-70
2022/01/12 06:45:52;;;;;;;;;;;-1.70;99.90;;;-2.93;100.00;97399.31;10414506;28;1811;-77
2022/01/12 06:50:55;;;;;;;;;;;-1.70;99.90;;;-2.76;100.00;97406.38;10421504;28;1777;-77
2022/01/12 06:55:59;;;;;;;;;;;-1.80;99.90;;;-2.73;100.00;97427.16;10423003;28;1873;-75
2022/01/12 07:01:02;;;;;;;;;;;-1.70;99.90;;;-2.52;100.00;97423.38;10409808;28;1980;-76
2022/01/12 07:06:06;;;;;;;;;;;-1.50;99.90;;;-2.55;100.00;97418.41;10419599;28;1919;-76
2022/01/12 07:11:09;;;;;;;;;;;-1.40;99.90;;;-2.58;100.00;97430.09;10409789;28;1995;-78
2022/01/12 07:16:12;;;;;;;;;;;-1.50;99.90;;;-2.67;100.00;97435.41;10427447;28;1900;-77
2022/01/12 07:21:15;;;;;;;;;;;-1.60;99.90;;;-2.67;100.00;97443.31;10399554;28;1895;-78
2022/01/12 07:26:18;;;;;;;;;;;-1.50;99.90;;;-2.91;100.00;97455.25;10413357;28;1915;-77
2022/01/12 07:31:21;;;;;;;;;;;-1.70;99.90;;;-2.87;100.00;97456.59;10411871;28;1897;-76
2022/01/12 07:36:24;;;;;;;;;;;-1.70;99.90;;;-2.74;100.00;97464.97;10443077;28;2087;-81
2022/01/12 07:41:27;;;;;;;;;;;-1.70;99.90;;;-2.76;100.00;97460.84;10426693;28;1886;-79
2022/01/12 07:46:30;;;;;;;;;;;-1.60;99.90;;;-2.63;100.00;97479.72;10415473;28;2269;-77
2022/01/12 07:51:33;;;;;;;;;;;-1.50;99.90;;;-2.58;100.00;97481.91;10422480;28;1865;-78
2022/01/12 07:56:36;;;;;;;;;;;-1.50;99.90;;;-2.86;100.00;97489.84;10412296;28;1896;-77
2022/01/12 08:01:40;;;;;;;;;;;-1.60;99.90;;;-2.82;100.00;97490.38;10407991;28;2009;-79
2022/01/12 08:06:44;;;;;;;;;;;-1.70;99.90;;;-2.46;100.00;97483.34;10413348;28;1659;-81
2022/01/12 08:11:47;;;;;;;;;;;-1.60;99.90;;;-2.32;100.00;97493.34;10431284;28;1846;-78
2022/01/12 08:16:50;;;;;;;;;;;-1.30;99.90;;;-2.20;100.00;97491.31;10427731;28;1817;-80
2022/01/12 08:21:53;;;;;;;;;;;-1.20;99.90;;;-2.14;100.00;97500.44;10424716;28;1894;-79
2022/01/12 08:26:57;;;;;;;;;;;-1.10;99.90;;;-2.06;100.00;97508.41;10417827;28;1863;-79
2022/01/12 08:32:00;;;;;;;;;;;-1.00;99.90;;;-1.96;100.00;97502.06;10434870;28;1935;-78
2022/01/12 08:37:03;;;;;;;;;;;-1.00;99.90;;;-1.82;100.00;97505.13;10409177;28;2020;-78
2022/01/12 08:42:06;;;;;;;;;;;-0.80;99.90;;;-1.83;100.00;97504.31;10410780;28;1880;-77
2022/01/12 08:47:15;;;;;;;;;;;-0.70;99.90;;;-1.43;100.00;97489.72;10420565;28;1879;-79
2022/01/12 08:52:18;;;;;;;;;;;-0.60;99.90;;;-1.59;98.53;97500.16;10413711;28;2023;-78
2022/01/12 08:57:21;;;;;;;;;;;-0.50;99.90;;;-1.54;98.11;97503.16;10415988;28;1906;-78
2022/01/12 09:02:24;;;;;;;;;;;-0.50;99.90;;;-1.64;97.92;97504.13;10434439;28;1927;-82
2022/01/12 09:07:28;;;;;;;;;;;-0.50;99.90;;;-1.63;98.25;97508.41;10450158;28;1881;-83
2022/01/12 09:12:31;;;;;;;;;;;-0.50;99.90;;;-1.20;96.76;97506.69;10453159;28;1785;-82
2022/01/12 09:17:34;;;;;;;;;;;-0.40;99.90;;;-1.18;94.86;97507.34;10446796;28;2108;-80
2022/01/12 09:22:38;;;;;;;;;;;-0.10;99.90;;;-0.66;93.05;97511.66;10451853;28;1869;-79
2022/01/12 09:27:42;;;;;;;;;;;0.10;99.90;;;-0.59;90.89;97505.59;10456361;28;1817;-78
2022/01/12 09:32:45;;;;;;;;;;;0.40;99.90;;;-0.49;89.90;97513.38;10446562;28;1889;-79
2022/01/12 09:37:53;;;;;;;;;;;0.60;99.90;;;-0.68;88.03;97511.84;10447656;28;2024;-78
2022/01/12 09:42:58;;;;;;;;;;;0.50;99.90;;;-0.80;88.40;97512.28;10444803;28;1878;-78
2022/01/12 09:48:01;;;;;;;;;;;0.40;99.90;;;-1.01;89.09;97520.63;10456266;28;1840;-79
2022/01/12 09:53:04;;;;;;;;;;;0.20;99.90;;;-0.55;89.77;97533.34;10440858;28;1841;-83
2022/01/12 09:58:07;;;;;;;;;;;0.20;99.90;;;-0.44;86.49;97512.91;10451660;28;1970;-81
2022/01/12 10:03:10;;;;;;;;;;;1.50;99.90;;;-0.20;84.77;97512.91;10439202;28;1975;-72
2022/01/12 10:08:13;;;;;;;;;;;0.70;99.90;;;-0.57;83.77;97498.34;10407521;28;1872;-69
2022/01/12 10:13:16;;;;;;;;;;;0.60;99.90;;;-0.95;86.33;97509.44;10413235;28;1836;-70
2022/01/12 10:18:20;;;;;;;;;;;0.40;99.90;;;-0.38;87.28;97518.38;10409053;28;1914;-73
2022/01/12 10:23:23;;;;;;;;;;;0.30;99.90;;;-0.27;84.18;97499.53;10418593;28;1935;-70
2022/01/12 10:28:26;;;;;;;;;;;0.60;99.90;;;0.28;81.75;97492.78;10409421;28;2016;-69
2022/01/12 10:33:29;;;;;;;;;;;0.90;99.90;;;0.30;80.96;97488.16;10417540;28;1873;-70
2022/01/12 10:38:32;;;;;;;;;;;1.10;99.90;;;-0.03;80.01;97496.09;10415061;28;2031;-70
2022/01/12 10:43:35;;;;;;;;;;;1.20;99.90;;;-0.13;82.25;97484.84;10412789;28;2011;-71
2022/01/12 10:48:38;;;;;;;;;;;1.10;99.90;;;-0.06;81.81;97483.22;10418111;28;2011;-71
2022/01/12 10:53:41;;;;;;;;;;;1.00;99.90;;;0.36;78.74;97495.41;10423449;28;1852;-70
2022/01/12 10:58:44;;;;;;;;;;;1.20;99.90;;;-0.06;79.46;97507.00;10418302;28;2063;-72
2022/01/12 11:03:47;;;;;;;;;;;1.20;99.90;;;-0.54;82.20;97497.19;10421498;28;1887;-69
2022/01/12 11:08:50;;;;;;;;;;;0.70;99.90;;;-0.61;82.83;97486.44;10423588;28;1905;-70
2022/01/12 11:13:53;;;;;;;;;;;0.40;99.90;;;-0.11;81.29;97493.44;10417694;28;1907;-70
2022/01/12 11:18:57;;;;;;;;;;;0.60;99.90;;;-0.15;79.44;97489.47;10414666;28;1967;-70
2022/01/12 11:24:00;;;;;;;;;;;0.80;99.90;;;0.11;78.05;97501.72;10418113;28;2257;-69
2022/01/12 11:29:03;;;;;;;;;;;1.00;99.90;;;0.08;76.77;97486.19;10408943;28;1828;-69
2022/01/12 11:34:06;;;;;;;;;;;1.10;99.90;;;0.62;75.17;97483.78;10418772;28;1865;-71
2022/01/12 11:39:09;;;;;;;;;;;1.40;99.90;;;0.39;76.10;97479.22;10413775;28;1910;-71
2022/01/12 11:44:13;;;;;;;;;;;1.30;99.90;;;-0.48;79.09;97474.56;10415997;28;2003;-71
2022/01/12 11:49:16;;;;;;;;;;;1.00;99.90;;;-0.65;81.03;97473.72;10437105;28;1851;-70
2022/01/12 11:54:19;;;;;;;;;;;0.70;99.90;;;0.15;79.90;97460.72;10421252;28;2306;-71
2022/01/12 11:59:22;;;;;;;;;;;0.90;99.90;;;0.68;75.40;97473.34;10414051;28;1907;-71
2022/01/12 12:04:25;;;;;;;;;;;1.50;99.90;;;0.43;75.51;97469.94;10409156;28;1769;-71
2022/01/12 12:09:27;;;;;;;;;;;1.50;99.90;;;0.12;77.14;97480.38;10423266;28;1787;-70
2022/01/12 12:14:30;;;;;;;;;;;1.70;99.90;;;0.08;77.74;97483.53;10425718;28;1945;-70
2022/01/12 12:19:37;;;;;;;;;;;1.20;99.90;;;-0.71;82.05;97504.22;10417109;28;1910;-74
2022/01/12 12:24:40;;;;;;;;;;;0.70;99.90;;;-0.91;82.25;97511.56;10422495;28;2056;-74
2022/01/12 12:29:44;;;;;;;;;;;0.40;99.90;;;-0.48;81.86;97512.38;10416702;28;1876;-74
2022/01/12 12:34:47;;;;;;;;;;;0.50;99.90;;;-0.44;82.36;97513.72;10413699;28;1793;-75
2022/01/12 12:39:50;;;;;;;;;;;0.60;99.90;;;-0.53;84.12;97513.84;10430479;28;1931;-73
2022/01/12 12:44:54;;;;;;;;;;;0.50;99.90;;;-0.94;85.17;97522.47;10418278;28;1932;-74
2022/01/12 12:50:02;;;;;;;;;;;0.40;99.90;;;-1.22;87.75;97516.53;10405956;28;1930;-73
2022/01/12 12:55:06;;;;;;;;;;;0.10;99.90;;;-1.32;88.85;97518.50;10436747;28;1799;-73
2022/01/12 13:00:09;;;;;;;;;;;-0.10;99.90;;;-1.59;89.47;97508.94;10411555;28;1910;-68
2022/01/12 13:05:12;;;;;;;;;;;-0.20;99.90;;;-1.52;89.78;97493.31;10422400;28;2898;-68
2022/01/12 13:10:15;;;;;;;;;;;-0.40;99.90;;;-1.45;87.39;97496.97;10417524;28;1898;-68
2022/01/12 13:15:18;;;;;;;;;;;-0.30;99.90;;;-0.87;86.79;97496.25;10419477;28;1935;-69
2022/01/12 13:25:41;;;;;;;;;;;0.20;99.90;;;-1.23;87.00;97485.88;10412583;28;1805;-69
2022/01/12 13:30:45;;;;;;;;;;;0.10;99.90;;;-1.37;86.30;97473.28;10418022;28;1900;-69
2022/01/12 13:35:48;;;;;;;;;;;-0.10;99.90;;;-1.19;85.24;97474.03;10414756;28;1754;-74
2022/01/12 13:40:55;;;;;;;;;;;-0.10;99.90;;;-1.20;85.61;97474.19;10414568;28;1948;-75
2022/01/12 13:46:00;;;;;;;;;;;0.00;99.90;;;-1.21;87.70;97477.78;10418263;28;1753;-77
2022/01/12 13:51:22;;;;;;;;;;;-0.10;99.90;;;-0.55;86.17;97454.09;10408116;28;1848;-71
2022/01/12 13:56:25;;;;;;;;;;;0.20;99.90;;;-1.05;86.13;97471.78;10431235;28;1897;-76
2022/01/12 14:01:28;;;;;;;;;;;0.30;99.90;;;-1.41;87.65;97464.84;10449954;28;1894;-79
2022/01/12 14:06:36;;;;;;;;;;;-0.10;99.90;;;-1.03;87.00;97467.16;10443786;28;1835;-79
2022/01/12 14:11:40;;;;;;;;;;;-0.10;99.90;;;-0.46;85.12;97469.94;10438677;28;2270;-76
2022/01/12 14:16:43;;;;;;;;;;;0.30;99.90;;;-0.35;82.50;97475.75;10426664;28;2226;-75
2022/01/12 14:21:46;;;;;;;;;;;0.70;99.90;;;-0.37;81.51;97487.47;10425941;28;1911;-76
2022/01/12 14:26:49;;;;;;;;;;;0.80;99.90;;;-0.72;83.63;97481.44;10422171;28;1853;-76
2022/01/12 14:31:52;;;;;;;;;;;0.70;99.90;;;-0.85;85.64;97473.97;10417755;28;1890;-76
2022/01/12 14:36:55;;;;;;;;;;;0.40;99.90;;;-0.92;84.23;97477.44;10421347;28;1778;-76
2022/01/12 14:41:58;;;;;;;;;;;0.30;99.90;;;-1.15;86.13;97499.09;10410915;28;1926;-76
2022/01/12 14:47:01;;;;;;;;;;;0.10;99.90;;;-1.53;87.04;97507.47;10430906;28;1496;-77
2022/01/12 14:52:04;;;;;;;;;;;-0.10;99.90;;;-2.09;91.48;97514.00;10414191;28;1860;-76
2022/01/12 14:57:08;;;;;;;;;;;-0.60;99.90;;;-2.32;92.67;97532.03;10422746;28;1834;-76
2022/01/12 15:02:12;;;;;;;;;;;;;;;-2.61;94.58;97530.44;10418777;28;1953;-75
2022/01/12 15:07:20;;;;;;;;;;;;;;;-2.56;94.74;97522.91;10424162;28;2168;-75
2022/01/12 15:12:29;;;;;;;;;;;;;;;-2.76;95.48;97535.34;10422228;28;1880;-75
2022/01/12 15:17:33;;;;;;;;;;;;;;;-3.02;98.66;97547.53;10414867;28;1853;-75
2022/01/12 15:22:36;;;;;;;;;;;;;;;-3.12;100.00;97544.94;10397663;28;1970;-76
2022/01/12 15:27:40;;;;;;;;;;;;;;;-3.10;100.00;97547.44;10407593;28;1830;-76
2022/01/12 15:32:43;;;;;;;;;;;;;;;-3.22;100.00;97556.50;10421581;28;1900;-77
2022/01/12 15:37:47;;;;;;;;;;;;;;;-3.16;100.00;97561.19;10421848;28;1791;-77
2022/01/12 15:42:51;;;;;;;;;;;;;;;-3.24;100.00;97568.94;10429562;28;1899;-76
2022/01/12 15:47:54;;;;;;;;;;;;;;;-3.24;100.00;97555.78;10426954;28;1957;-77
2022/01/12 15:52:58;;;;;;;;;;;;;;;-3.23;100.00;97566.19;10427445;28;1880;-76
2022/01/12 15:58:02;;;;;;;;;;;;;;;-3.33;100.00;97555.69;10421536;28;1901;-73
2022/01/12 16:03:06;;;;;;;;;;;-2.10;99.90;;;-3.48;100.00;97566.81;10444621;28;1902;-72
2022/01/12 16:08:09;;;;;;;;;;;-2.20;99.90;;;-3.53;100.00;97567.22;10392198;28;1866;-71
2022/01/12 16:13:12;;;;;;;;;;;-2.30;99.90;;;-3.35;100.00;97562.06;10416662;28;1853;-74
2022/01/12 16:18:36;;;;;;;;;;;-2.20;99.90;;;-3.27;100.00;97565.63;10417602;28;1897;-76
2022/01/12 16:23:39;;;;;;;;;;;-2.20;99.90;;;-3.18;100.00;97563.09;10414038;28;1948;-74
2022/01/12 16:28:42;;;;;;;;;;;-2.10;99.90;;;-3.24;100.00;97561.03;10409725;28;1953;-75
2022/01/12 16:33:45;;;;;;;;;;;-2.10;99.90;;;-3.34;100.00;97543.50;10412715;28;1785;-76
2022/01/12 16:38:49;;;;;;;;;;;-2.10;99.90;;;-3.31;100.00;97548.50;10412221;28;1849;-75
2022/01/12 16:43:52;;;;;;;;;;;-2.10;99.90;;;-3.26;100.00;97540.97;10425631;28;1918;-80
2022/01/12 16:48:55;;;;;;;;;;;-2.10;99.90;;;-3.23;100.00;97541.69;10408847;28;2063;-76
2022/01/12 16:54:16;;;;;;;;;;;-2.10;99.90;;;-3.21;100.00;97547.63;10410338;28;1802;-75
2022/01/12 16:59:19;;;;;;;;;;;-2.00;99.90;;;-3.12;100.00;97547.56;10423915;28;1910;-76
2022/01/12 17:04:24;;;;;;;;;;;-2.00;99.90;;;-3.10;100.00;97565.88;10412666;28;1869;-76
2022/01/12 17:09:27;;;;;;;;;;;-2.00;99.90;;;-3.16;100.00;97571.69;10405405;28;1930;-76
2022/01/12 17:14:30;;;;;;;;;;;-1.90;99.90;;;-3.16;100.00;97567.25;10404640;28;1894;-73
2022/01/12 17:19:36;;;;;;;;;;;-2.00;99.90;;;-3.21;100.00;97558.13;10405747;28;2228;-73
2022/01/12 17:24:57;;;;;;;;;;;-2.00;99.90;;;-3.06;100.00;97573.31;10407500;28;1947;-74
2022/01/12 17:30:04;;;;;;;;;;;-1.90;99.90;;;-3.07;100.00;97569.00;10411551;28;1898;-74
2022/01/12 17:35:07;;;;;;;;;;;-1.80;99.90;;;-3.04;100.00;97578.44;10419484;28;1811;-75
2022/01/12 17:40:10;;;;;;;;;;;-1.90;99.90;;;-2.96;100.00;97589.06;10413233;28;1906;-76
2022/01/12 17:45:13;;;;;;;;;;;-1.80;99.90;;;-3.06;100.00;97596.16;10416783;28;2347;-75
2022/01/12 17:50:18;;;;;;;;;;;-1.80;99.90;;;-3.10;100.00;97589.53;10414752;28;1837;-73
2022/01/12 17:55:21;;;;;;;;;;;-1.90;99.90;;;-3.00;100.00;97590.31;10431302;28;2085;-77
2022/01/12 18:00:25;;;;;;;;;;;-1.90;99.90;;;-2.92;100.00;97597.50;10417512;28;1918;-74
2022/01/12 18:05:28;;;;;;;;;;;-1.80;99.90;;;-2.96;100.00;97606.66;10428763;28;1804;-76
2022/01/12 18:10:31;;;;;;;;;;;-1.80;99.90;;;-2.88;100.00;97606.75;10416078;28;2321;-75
2022/01/12 18:15:41;;;;;;;;;;;-1.80;99.90;;;-3.00;100.00;97603.47;10416359;28;1861;-76
2022/01/12 18:20:44;;;;;;;;;;;-1.80;99.90;;;-3.04;100.00;97604.75;10407191;28;1910;-75
2022/01/12 18:25:47;;;;;;;;;;;-1.80;99.90;;;-2.90;100.00;97600.81;10417323;28;1848;-75
2022/01/12 18:30:50;;;;;;;;;;;-1.80;99.90;;;-2.89;100.00;97611.19;10417227;28;1866;-75
2022/01/12 18:35:54;;;;;;;;;;;-1.70;99.90;;;-2.97;100.00;97612.91;10425626;28;1799;-76
2022/01/12 18:40:57;;;;;;;;;;;-1.80;99.90;;;-2.92;100.00;97627.28;10413514;28;1993;-76
2022/01/12 18:46:00;;;;;;;;;;;-1.80;99.90;;;-2.82;100.00;97633.31;10429137;28;1948;-75
2022/01/12 18:51:03;;;;;;;;;;;-1.00;99.90;;;-2.82;100.00;97645.66;10413018;28;1798;-73
2022/01/12 18:56:06;;;;;;;;;;;-1.60;99.90;;;-2.64;100.00;97646.56;10423515;28;1879;-74
2022/01/12 19:01:09;;;;;;;;;;;-1.60;99.90;;;-2.63;100.00;97655.28;10433210;28;1950;-76
2022/01/12 19:06:32;;;;;;;;;;;-1.50;99.90;;;-2.62;100.00;97644.59;10420663;28;1881;-70
2022/01/12 19:11:37;;;;;;;;;;;-1.50;99.90;;;-2.65;100.00;97654.63;10412585;28;1861;-70
2022/01/12 19:16:39;;;;;;;;;;;-1.50;99.90;;;-2.67;100.00;97646.00;10412622;28;1902;-69
2022/01/12 19:21:42;;;;;;;;;;;-1.40;99.90;;;-2.62;100.00;97641.16;10412587;28;1906;-70
2022/01/12 19:26:46;;;;;;;;;;;-1.40;99.90;;;-2.71;100.00;97656.00;10412578;28;1794;-70
2022/01/12 19:31:49;;;;;;;;;;;-1.00;99.90;;;-2.66;100.00;97650.31;10406696;28;1813;-72
2022/01/12 19:36:52;;;;;;;;;;;-1.50;99.90;;;-2.56;100.00;97651.91;10408857;28;1767;-71
2022/01/12 19:41:55;;;;;;;;;;;-1.50;99.90;;;-2.46;100.00;97654.53;10408856;28;2039;-71
2022/01/12 19:46:59;;;;;;;;;;;-1.40;99.90;;;-2.37;100.00;97652.81;10418673;28;1857;-68
2022/01/12 19:52:04;;;;;;;;;;;-1.30;99.90;;;-2.32;100.00;97656.66;10408923;28;1784;-68
2022/01/12 19:57:07;;;;;;;;;;;-1.20;99.90;;;-2.39;99.58;97662.66;10403807;28;1879;-71
2022/01/12 20:02:10;;;;;;;;;;;-1.20;99.90;;;-2.47;100.00;97658.13;10400946;28;1977;-71
2022/01/12 20:07:13;;;;;;;;;;;-1.30;99.90;;;-2.55;100.00;97650.13;10403839;28;1832;-70
2022/01/12 20:12:17;;;;;;;;;;;-1.00;99.90;;;-2.52;100.00;97634.03;10417757;28;1876;-70
2022/01/12 20:22:37;;;;;;;;;;;-1.30;99.90;;;-2.58;100.00;97667.03;10422991;28;2001;-71
2022/01/12 20:27:40;;;;;;;;;;;-1.40;99.90;;;-2.41;100.00;97657.56;10432104;28;1826;-72
2022/01/12 20:32:43;;;;;;;;;;;-1.30;99.90;;;-2.36;100.00;97660.56;10421962;28;1825;-71
2022/01/12 20:37:46;;;;;;;;;;;-2.50;99.90;;;-2.53;100.00;97648.19;10410884;28;1852;-70
2022/01/12 20:42:49;;;;;;;;;;;-1.30;99.90;;;-2.56;100.00;97649.28;10417458;28;1946;-70
2022/01/12 20:47:52;;;;;;;;;;;-1.40;99.90;;;-2.66;100.00;97658.22;10416449;28;1837;-70
2022/01/12 20:52:55;;;;;;;;;;;-1.40;99.90;;;-2.68;100.00;97670.69;10414257;28;1950;-70
2022/01/12 20:57:58;;;;;;;;;;;-1.50;99.90;;;-2.57;100.00;97673.13;10406536;28;1916;-70
2022/01/12 21:03:01;;;;;;;;;;;-1.50;99.90;;;-2.63;100.00;97678.97;10412214;28;1934;-70
2022/01/12 21:08:04;;;;;;;;;;;-1.40;99.90;;;-2.76;100.00;97689.81;10407267;28;1916;-70
2022/01/12 21:13:07;;;;;;;;;;;-1.50;99.90;;;-2.68;100.00;97689.09;10416927;28;1794;-71
2022/01/12 21:18:10;;;;;;;;;;;-1.50;99.90;;;-2.52;100.00;97676.19;10423376;28;1841;-71
2022/01/12 21:23:13;;;;;;;;;;;-1.50;99.90;;;-2.38;100.00;97662.50;10427699;28;1915;-70
2022/01/12 21:28:17;;;;;;;;;;;-1.30;99.90;;;-2.46;100.00;97668.53;10420156;28;1870;-70
2022/01/12 21:33:20;;;;;;;;;;;-1.30;99.90;;;-2.48;100.00;97667.03;10412373;28;1829;-70
2022/01/12 21:38:31;;;;;;;;;;;-1.30;99.90;;;-2.31;100.00;97663.59;10412862;28;1925;-70
2022/01/12 21:43:34;;;;;;;;;;;-1.30;99.90;;;-2.48;100.00;97672.28;10419990;28;1989;-70
2022/01/12 21:48:37;;;;;;;;;;;-1.30;99.90;;;-2.43;100.00;97656.03;10420925;28;1893;-70
2022/01/12 21:53:40;;;;;;;;;;;-1.30;99.90;;;-2.57;100.00;97659.97;10428907;28;1849;-70
2022/01/12 21:58:43;;;;;;;;;;;-1.40;99.90;;;-2.61;100.00;97666.50;10420176;23;3714;-68
2022/01/12 22:03:46;;;;;;;;;;;-1.40;99.90;;;-2.59;100.00;97673.28;10417149;28;1913;-68
2022/01/12 22:08:49;;;;;;;;;;;-1.40;99.90;;;-2.63;100.00;97665.81;10406855;28;1853;-67
2022/01/12 22:13:52;;;;;;;;;;;-1.40;99.90;;;-2.72;100.00;97662.25;10407517;28;1778;-69
2022/01/12 22:18:55;;;;;;;;;;;-1.50;99.90;;;-2.85;100.00;97659.94;10404722;28;1742;-68
2022/01/12 22:23:58;;;;;;;;;;;-1.50;99.90;;;-2.86;100.00;97668.81;10400208;28;1929;-69
2022/01/12 22:29:02;;;;;;;;;;;-1.60;99.90;;;-3.07;100.00;97673.44;10401558;28;2617;-68
2022/01/12 22:34:06;;;;;;;;;;;-1.70;99.90;;;-3.10;100.00;97674.56;10411563;28;1771;-68
2022/01/12 22:39:08;;;;;;;;;;;-1.80;99.90;;;-3.21;100.00;97684.41;10399476;28;1880;-68
2022/01/12 22:44:11;;;;;;;;;;;-1.90;99.90;;;-3.28;100.00;97670.97;10403689;28;1972;-68
2022/01/12 22:49:14;;;;;;;;;;;-2.00;99.90;;;-3.50;100.00;97669.44;10404299;28;1876;-68
2022/01/12 22:54:17;;;;;;;;;;;-2.10;99.90;;;-3.58;100.00;97667.53;10396371;28;2029;-68
2022/01/12 22:59:20;;;;;;;;;;;-2.20;99.90;;;-3.64;100.00;97677.75;10406747;28;1831;-67
2022/01/12 23:04:25;;;;;;;;;;;-2.30;99.90;;;-3.71;100.00;97671.41;10409580;28;1969;-69
2022/01/12 23:09:28;;;;;;;;;;;-2.40;99.90;;;-3.72;100.00;97669.75;10402444;28;1879;-68
2022/01/12 23:14:31;;;;;;;;;;;-2.50;99.90;;;-3.75;100.00;97672.63;10399412;28;1816;-67
2022/01/12 23:19:34;;;;;;;;;;;-2.50;99.90;;;-3.67;100.00;97680.69;10401833;28;1826;-67
2022/01/12 23:24:37;;;;;;;;;;;-2.50;99.90;;;-3.63;100.00;97669.72;10400740;28;1914;-68
2022/01/12 23:29:41;;;;;;;;;;;-2.50;99.90;;;-3.64;100.00;97683.03;10406108;28;1817;-68
2022/01/12 23:40:54;;;;;;;;;;;-2.40;99.90;;;-3.48;100.00;97688.56;10400103;28;1809;-68
2022/01/12 23:51:31;;;;;;;;;;;-2.30;99.90;;;-3.41;100.00;97702.81;10406229;28;1730;-68
